Time,TemperatureF,DewpointF,PressureIn,WindDirection,WindDirectionDegrees,WindSpeedMPH,WindSpeedGustMPH,Humidity,HourlyPrecipIn,Conditions,Clouds,dailyrainin,SolarRadiationWatts/m^2,SoftwareType,DateUTC
2013-05-06 00:01:00,64.5,55.7,30.12,South,189,0.0,0.0,73,0.00,BKN,,0.00,0.0,WeatherDisplay:10.37,2013-05-05 22:01:00,
2013-05-06 00:06:00,64.4,55.2,30.12,South,189,0.0,0.0,72,0.00,BKN,,0.00,0.0,WeatherDisplay:10.37,2013-05-05 22:06:00,
2013-05-06 00:11:00,64.4,55.2,30.12,North,349,0.4,2.3,72,0.00,BKN,,0.00,0.0,WeatherDisplay:10.37,2013-05-05 22:11:00,
2013-05-06 00:16:00,64.4,55.6,30.11,North,9,1.0,2.3,73,0.00,BKN,,0.00,0.0,WeatherDisplay:10.37,2013-05-05 22:16:00,
2013-05-06 00:21:00,64.4,55.6,30.11,North,360,0.8,3.5,73,0.00,BKN,,0.00,0.0,WeatherDisplay:10.37,2013-05-05 22:21:00,
2013-05-06 00:26:00,64.3,55.5,30.11,North,5,0.4,2.3,73,0.00,BKN,,0.00,0.0,WeatherDisplay:10.37,2013-05-05 22:26:00,
2013-05-06 00:31:00,64.2,55.4,30.11,North,5,0.0,0.0,73,0.00,BKN,,0.00,0.0,WeatherDisplay:10.37,2013-05-05 22:31:00,
2013-05-06 00:37:00,64.1,55.6,30.11,North,5,0.0,0.0,74,0.00,BKN,,0.00,0.0,WeatherDisplay:10.37,2013-05-05 22:37:00,
2013-05-06 00:42:00,64.0,55.5,30.11,North,5,0.0,2.3,74,0.00,BKN,,0.00,0.0,WeatherDisplay:10.37,2013-05-05 22:42:00,
2013-05-06 00:47:00,63.9,55.4,30.10,NE,49,0.1,1.2,74,0.00,BKN,,0.00,0.0,WeatherDisplay:10.37,2013-05-05 22:47:00,
2013-05-06 00:52:00,63.8,55.7,30.10,ENE,61,0.0,0.0,75,0.00,BKN,,0.00,0.0,WeatherDisplay:10.37,2013-05-05 22:52:00,
2013-05-06 00:57:00,63.7,55.6,30.10,ENE,63,0.2,2.0,75,0.00,BKN,,0.00,0.0,WeatherDisplay:10.37,2013-05-05 22:57:00,
2013-05-06 01:02:00,63.6,55.2,30.10,NNE,18,1.5,3.5,74,0.00,BKN,,0.00,0.0,WeatherDisplay:10.37,2013-05-05 23:02:00,
2013-05-06 01:07:00,63.6,55.2,30.10,NNE,21,0.0,2.3,74,0.00,BKN,,0.00,0.0,WeatherDisplay:10.37,2013-05-05 23:07:00,
2013-05-06 01:12:00,63.6,55.2,30.10,NE,35,0.0,1.0,74,0.00,BKN,,0.00,0.0,WeatherDisplay:10.37,2013-05-05 23:12:00,
2013-05-06 01:17:00,63.6,55.2,30.10,NE,51,0.5,2.3,74,0.00,BKN,,0.00,0.0,WeatherDisplay:10.37,2013-05-05 23:17:00,
2013-05-06 01:22:00,63.6,55.2,30.10,NE,44,1.3,4.0,74,0.00,BKN,,0.00,0.0,WeatherDisplay:10.37,2013-05-05 23:22:00,
2013-05-06 01:27:00,63.5,55.4,30.10,NE,52,1.7,3.5,75,0.00,BKN,,0.00,0.0,WeatherDisplay:10.37,2013-05-05 23:27:00,
2013-05-06 01:32:00,63.4,55.0,30.10,East,84,0.0,2.3,74,0.00,BKN,,0.00,0.0,WeatherDisplay:10.37,2013-05-05 23:32:00,
2013-05-06 01:37:00,63.3,55.2,30.10,East,79,0.2,2.3,75,0.00,BKN,,0.00,0.0,WeatherDisplay:10.37,2013-05-05 23:37:00,
2013-05-06 01:42:00,63.3,54.9,30.10,East,89,0.2,3.5,74,0.00,BKN,,0.00,0.0,WeatherDisplay:10.37,2013-05-05 23:42:00,
2013-05-06 01:47:00,63.2,54.8,30.10,East,88,0.0,0.0,74,0.00,BKN,,0.00,0.0,WeatherDisplay:10.37,2013-05-05 23:47:00,
2013-05-06 01:52:00,63.1,54.7,30.10,East,88,0.2,1.0,74,0.00,BKN,,0.00,0.0,WeatherDisplay:10.37,2013-05-05 23:52:00,
2013-05-06 01:57:00,63.0,54.9,30.10,East,88,0.0,0.0,75,0.00,BKN,,0.00,0.0,WeatherDisplay:10.37,2013-05-05 23:57:00,
2013-05-06 02:02:00,62.8,54.8,30.10,East,88,0.0,0.0,75,0.00,BKN,,0.00,0.0,WeatherDisplay:10.37,2013-05-06 00:02:00,
2013-05-06 02:07:00,62.7,54.7,30.10,East,88,0.0,0.0,75,0.00,BKN,,0.00,0.0,WeatherDisplay:10.37,2013-05-06 00:07:00,
2013-05-06 02:12:00,62.5,54.8,30.10,East,88,0.1,1.2,76,0.00,BKN,,0.00,0.0,WeatherDisplay:10.37,2013-05-06 00:12:00,
2013-05-06 02:17:00,62.3,54.6,30.11,East,88,0.0,0.0,76,0.00,BKN,,0.00,0.0,WeatherDisplay:10.37,2013-05-06 00:17:00,
2013-05-06 02:22:00,62.1,54.4,30.11,East,88,0.0,0.0,76,0.00,BKN,,0.00,0.0,WeatherDisplay:10.37,2013-05-06 00:22:00,
2013-05-06 02:27:00,62.0,54.3,30.11,East,88,0.0,0.0,76,0.00,BKN,,0.00,0.0,WeatherDisplay:10.37,2013-05-06 00:27:00,
2013-05-06 02:32:00,61.9,54.2,30.10,ENE,74,0.0,1.2,76,0.00,BKN,,0.00,0.0,WeatherDisplay:10.37,2013-05-06 00:32:00,
2013-05-06 02:37:00,61.8,54.2,30.10,NE,55,1.1,4.0,76,0.00,BKN,,0.00,0.0,WeatherDisplay:10.37,2013-05-06 00:37:00,
2013-05-06 02:42:00,61.8,53.8,30.10,NNE,19,1.2,3.5,75,0.00,BKN,,0.00,0.0,WeatherDisplay:10.37,2013-05-06 00:42:00,
2013-05-06 02:47:00,61.9,53.5,30.10,ENE,63,0.2,2.3,74,0.00,BKN,,0.00,0.0,WeatherDisplay:10.37,2013-05-06 00:47:00,
2013-05-06 02:52:00,61.9,53.1,30.10,ENE,59,2.0,5.0,73,0.00,BKN,,0.00,0.0,WeatherDisplay:10.37,2013-05-06 00:52:00,
2013-05-06 02:57:00,62.0,52.9,30.10,NE,42,0.8,3.5,72,0.00,BKN,,0.00,0.0,WeatherDisplay:10.37,2013-05-06 00:57:00,
2013-05-06 03:02:00,62.1,53.0,30.10,ENE,76,1.2,3.5,72,0.00,BKN,,0.00,0.0,WeatherDisplay:10.37,2013-05-06 01:02:00,
2013-05-06 03:07:00,62.1,52.6,30.10,ENE,62,0.5,3.5,71,0.00,BKN,,0.00,0.0,WeatherDisplay:10.37,2013-05-06 01:07:00,
2013-05-06 03:12:00,62.2,52.7,30.09,ENE,59,0.1,1.2,71,0.00,BKN,,0.00,0.0,WeatherDisplay:10.37,2013-05-06 01:12:00,
2013-05-06 03:17:00,62.2,52.3,30.09,NE,55,0.7,2.3,70,0.00,BKN,,0.00,0.0,WeatherDisplay:10.37,2013-05-06 01:17:00,
2013-05-06 03:22:00,62.2,52.3,30.09,NE,53,0.0,2.3,70,0.00,BKN,,0.00,0.0,WeatherDisplay:10.37,2013-05-06 01:22:00,
2013-05-06 03:27:00,62.1,52.6,30.09,NE,53,0.0,1.2,71,0.00,BKN,,0.00,0.0,WeatherDisplay:10.37,2013-05-06 01:27:00,
2013-05-06 03:32:00,62.0,52.5,30.09,NE,53,0.0,0.0,71,0.00,BKN,,0.00,0.0,WeatherDisplay:10.37,2013-05-06 01:32:00,
2013-05-06 03:37:00,61.9,52.4,30.10,NE,53,0.0,1.2,71,0.00,BKN,,0.00,0.0,WeatherDisplay:10.37,2013-05-06 01:37:00,
2013-05-06 03:42:00,61.7,52.2,30.10,NE,53,0.0,1.2,71,0.00,BKN,,0.00,0.0,WeatherDisplay:10.37,2013-05-06 01:42:00,
2013-05-06 03:47:00,61.6,52.1,30.11,South,188,0.3,3.5,71,0.00,BKN,,0.00,0.0,WeatherDisplay:10.37,2013-05-06 01:47:00,
2013-05-06 03:52:00,61.5,52.4,30.11,SSW,201,0.1,2.3,72,0.00,BKN,,0.00,0.0,WeatherDisplay:10.37,2013-05-06 01:52:00,
2013-05-06 03:57:00,61.4,52.3,30.11,SSW,209,0.0,0.0,72,0.00,BKN,,0.00,0.0,WeatherDisplay:10.37,2013-05-06 01:57:00,
2013-05-06 04:02:00,61.2,52.5,30.11,SSW,209,0.0,0.0,73,0.00,BKN,,0.00,0.0,WeatherDisplay:10.37,2013-05-06 02:02:00,
2013-05-06 04:07:00,61.0,52.3,30.10,South,190,0.3,1.2,73,0.00,BKN,,0.00,0.0,WeatherDisplay:10.37,2013-05-06 02:07:00,
2013-05-06 04:12:00,60.8,52.5,30.11,South,190,0.0,0.0,74,0.00,BKN,,0.00,0.0,WeatherDisplay:10.37,2013-05-06 02:12:00,
2013-05-06 04:17:00,60.7,52.4,30.10,South,190,0.0,0.0,74,0.00,BKN,,0.00,0.0,WeatherDisplay:10.37,2013-05-06 02:17:00,
2013-05-06 04:22:00,60.5,52.2,30.10,East,88,0.3,2.0,74,0.00,BKN,,0.00,0.0,WeatherDisplay:10.37,2013-05-06 02:22:00,
2013-05-06 04:27:00,60.4,52.4,30.10,East,86,0.0,1.0,75,0.00,BKN,,0.00,0.0,WeatherDisplay:10.37,2013-05-06 02:27:00,
2013-05-06 04:32:00,60.4,52.4,30.10,ENE,63,0.0,2.3,75,0.00,BKN,,0.00,0.0,WeatherDisplay:10.37,2013-05-06 02:32:00,
2013-05-06 04:37:00,60.3,52.0,30.09,NE,37,0.8,3.5,74,0.00,BKN,,0.00,0.0,WeatherDisplay:10.37,2013-05-06 02:37:00,
2013-05-06 04:42:00,60.3,51.6,30.08,NE,51,0.0,2.3,73,0.00,BKN,,0.00,0.0,WeatherDisplay:10.37,2013-05-06 02:42:00,
2013-05-06 04:47:00,60.4,51.7,30.08,NNE,27,2.4,5.0,73,0.00,BKN,,0.00,0.0,WeatherDisplay:10.37,2013-05-06 02:47:00,
2013-05-06 04:52:00,60.5,52.2,30.08,NNE,28,1.3,4.6,74,0.00,BKN,,0.00,0.0,WeatherDisplay:10.37,2013-05-06 02:52:00,
2013-05-06 04:57:00,60.5,52.2,30.08,ENE,67,0.1,2.0,74,0.00,BKN,,0.00,0.0,WeatherDisplay:10.37,2013-05-06 02:57:00,
2013-05-06 05:02:00,60.4,52.1,30.07,NNW,347,0.6,2.0,74,0.00,BKN,,0.00,0.0,WeatherDisplay:10.37,2013-05-06 03:02:00,
2013-05-06 05:07:00,60.3,52.0,30.07,North,5,0.0,1.0,74,0.00,BKN,,0.00,0.0,WeatherDisplay:10.37,2013-05-06 03:07:00,
2013-05-06 05:12:00,60.2,51.9,30.07,North,5,0.0,1.2,74,0.00,BKN,,0.00,0.0,WeatherDisplay:10.37,2013-05-06 03:12:00,
2013-05-06 05:17:00,60.2,51.9,30.07,North,5,0.0,0.0,74,0.00,BKN,,0.00,0.0,WeatherDisplay:10.37,2013-05-06 03:17:00,
2013-05-06 05:22:00,60.1,51.8,30.07,North,5,0.0,0.0,74,0.00,BKN,,0.00,0.0,WeatherDisplay:10.37,2013-05-06 03:22:00,
2013-05-06 05:27:00,60.0,52.1,30.08,SSE,155,0.3,1.0,75,0.00,BKN,,0.00,5.0,WeatherDisplay:10.37,2013-05-06 03:27:00,
2013-05-06 05:32:00,59.9,52.0,30.07,SSE,155,0.0,0.0,75,0.00,BKN,,0.00,5.0,WeatherDisplay:10.37,2013-05-06 03:32:00,
2013-05-06 05:37:00,59.8,51.9,30.07,East,79,0.7,3.0,75,0.00,BKN,,0.00,7.0,WeatherDisplay:10.37,2013-05-06 03:37:00,
2013-05-06 05:42:00,59.7,51.8,30.06,NNE,14,2.7,5.0,75,0.00,BKN,,0.00,7.0,WeatherDisplay:10.37,2013-05-06 03:42:00,
2013-05-06 05:47:00,59.7,51.8,30.05,NE,45,4.8,8.0,75,0.00,BKN,,0.00,7.0,WeatherDisplay:10.37,2013-05-06 03:47:00,
2013-05-06 05:52:00,59.9,52.0,30.07,SE,134,0.6,2.3,75,0.00,BKN,,0.00,9.0,WeatherDisplay:10.37,2013-05-06 03:52:00,
2013-05-06 05:57:00,60.0,52.1,30.06,ENE,63,2.5,8.1,75,0.00,BKN,,0.00,7.0,WeatherDisplay:10.37,2013-05-06 03:57:00,
2013-05-06 06:01:00,60.0,52.1,30.07,SE,130,1.4,5.8,75,0.00,BKN,,0.00,7.0,WeatherDisplay:10.37,2013-05-06 04:01:00,
2013-05-06 06:03:00,60.0,52.1,30.07,SSW,198,1.7,3.0,75,0.00,BKN,,0.00,9.0,WeatherDisplay:10.37,2013-05-06 04:03:00,
2013-05-06 06:05:00,60.0,51.7,30.07,ESE,110,1.0,6.0,74,0.00,BKN,,0.00,11.0,WeatherDisplay:10.37,2013-05-06 04:05:00,
2013-05-06 06:07:00,60.0,51.7,30.08,ESE,103,0.1,1.0,74,0.00,BKN,,0.00,12.0,WeatherDisplay:10.37,2013-05-06 04:07:00,
2013-05-06 06:12:00,60.1,51.8,30.08,WSW,246,0.9,3.0,74,0.00,BKN,,0.00,12.0,WeatherDisplay:10.37,2013-05-06 04:12:00,
2013-05-06 06:15:00,60.1,51.8,30.08,SSW,210,0.0,3.0,74,0.00,BKN,,0.00,12.0,WeatherDisplay:10.37,2013-05-06 04:15:00,
2013-05-06 06:20:00,60.1,52.1,30.08,WSW,245,0.0,1.0,75,0.00,BKN,,0.00,16.0,WeatherDisplay:10.37,2013-05-06 04:20:00,
2013-05-06 06:25:00,60.1,52.5,30.08,WSW,246,0.0,0.0,76,0.00,BKN,,0.00,21.0,WeatherDisplay:10.37,2013-05-06 04:25:00,
2013-05-06 06:30:00,60.0,52.1,30.08,WSW,246,0.0,0.0,75,0.00,BKN,,0.00,33.0,WeatherDisplay:10.37,2013-05-06 04:30:00,
2013-05-06 06:35:00,60.0,52.4,30.08,WSW,246,0.0,0.0,76,0.00,BKN,,0.00,42.0,WeatherDisplay:10.37,2013-05-06 04:35:00,
2013-05-06 06:40:00,60.0,52.4,30.08,WSW,246,0.0,0.0,76,0.00,BKN,,0.00,51.0,WeatherDisplay:10.37,2013-05-06 04:40:00,
2013-05-06 06:45:00,60.0,52.4,30.09,WSW,246,0.0,0.0,76,0.00,BKN,,0.00,54.0,WeatherDisplay:10.37,2013-05-06 04:45:00,
2013-05-06 06:50:00,60.1,52.5,30.09,WSW,246,0.0,0.0,76,0.00,BKN,,0.00,60.0,WeatherDisplay:10.37,2013-05-06 04:50:00,
2013-05-06 06:55:00,60.1,52.5,30.09,West,259,0.0,1.2,76,0.00,BKN,,0.00,90.0,WeatherDisplay:10.37,2013-05-06 04:55:00,
2013-05-06 07:00:00,60.3,52.7,30.09,West,275,0.1,1.2,76,0.00,BKN,,0.00,83.0,WeatherDisplay:10.37,2013-05-06 05:00:00,
2013-05-06 07:05:00,60.4,52.4,30.09,West,276,0.0,1.2,75,0.00,BKN,,0.00,84.0,WeatherDisplay:10.37,2013-05-06 05:05:00,
2013-05-06 07:10:00,60.6,52.6,30.09,ENE,71,0.5,3.0,75,0.00,BKN,,0.00,84.0,WeatherDisplay:10.37,2013-05-06 05:10:00,
2013-05-06 07:15:00,60.8,52.8,30.09,East,82,0.0,1.2,75,0.00,BKN,,0.00,83.0,WeatherDisplay:10.37,2013-05-06 05:15:00,
2013-05-06 07:20:00,60.9,52.6,30.09,East,90,0.1,3.5,74,0.00,BKN,,0.00,93.0,WeatherDisplay:10.37,2013-05-06 05:20:00,
2013-05-06 07:25:00,61.2,52.8,30.10,East,90,0.0,1.0,74,0.00,BKN,,0.00,137.0,WeatherDisplay:10.37,2013-05-06 05:25:00,
2013-05-06 07:30:00,61.5,52.8,30.10,North,360,0.8,3.5,73,0.00,SCT,,0.00,193.0,WeatherDisplay:10.37,2013-05-06 05:30:00,
2013-05-06 07:35:00,62.1,52.6,30.10,North,355,1.7,4.0,71,0.00,SCT,,0.00,346.0,WeatherDisplay:10.37,2013-05-06 05:35:00,
2013-05-06 07:40:00,62.6,52.7,30.09,North,11,1.7,3.0,70,0.00,CLR,,0.00,387.0,WeatherDisplay:10.37,2013-05-06 05:40:00,
2013-05-06 07:45:00,63.2,53.3,30.10,North,11,1.8,3.5,70,0.00,CLR,,0.00,241.0,WeatherDisplay:10.37,2013-05-06 05:45:00,
2013-05-06 07:50:00,63.7,53.3,30.10,NNE,13,1.4,3.0,69,0.00,CLR,,0.00,387.0,WeatherDisplay:10.37,2013-05-06 05:50:00,
2013-05-06 07:56:00,64.5,53.7,30.10,NNE,19,2.7,4.0,68,0.00,CLR,,0.00,192.0,WeatherDisplay:10.37,2013-05-06 05:56:00,
2013-05-06 08:01:00,64.9,52.8,30.09,East,98,1.9,5.0,65,0.00,CLR,,0.00,165.0,WeatherDisplay:10.37,2013-05-06 06:01:00,
2013-05-06 08:06:00,64.9,53.3,30.09,East,96,1.7,4.0,66,0.00,SCT,,0.00,134.0,WeatherDisplay:10.37,2013-05-06 06:06:00,
2013-05-06 08:11:00,64.9,52.4,30.09,ENE,67,1.1,4.6,64,0.00,BKN,,0.00,142.0,WeatherDisplay:10.37,2013-05-06 06:11:00,
2013-05-06 08:16:00,64.8,52.3,30.09,ENE,67,1.9,4.6,64,0.00,BKN,,0.00,181.0,WeatherDisplay:10.37,2013-05-06 06:16:00,
2013-05-06 08:21:00,64.8,52.3,30.09,East,93,0.5,4.6,64,0.00,SCT,,0.00,257.0,WeatherDisplay:10.37,2013-05-06 06:21:00,
2013-05-06 08:26:00,64.9,52.0,30.08,East,91,4.1,10.4,63,0.00,SCT,,0.00,329.0,WeatherDisplay:10.37,2013-05-06 06:26:00,
2013-05-06 08:31:00,65.3,52.4,30.08,ESE,116,1.3,5.8,63,0.00,SCT,,0.00,279.0,WeatherDisplay:10.37,2013-05-06 06:31:00,
2013-05-06 08:36:00,65.5,52.1,30.08,NE,42,1.5,8.1,62,0.00,SCT,,0.00,207.0,WeatherDisplay:10.37,2013-05-06 06:36:00,
2013-05-06 08:41:00,65.6,51.3,30.08,East,93,5.9,9.2,60,0.00,SCT,,0.00,185.0,WeatherDisplay:10.37,2013-05-06 06:41:00,
2013-05-06 08:46:00,65.7,50.5,30.08,SSW,196,6.6,12.0,58,0.00,BKN,,0.00,155.0,WeatherDisplay:10.37,2013-05-06 06:46:00,
2013-05-06 08:51:00,65.8,50.1,30.09,SSE,151,5.7,13.8,57,0.00,BKN,,0.00,134.0,WeatherDisplay:10.37,2013-05-06 06:51:00,
2013-05-06 08:56:00,65.8,49.2,30.08,ESE,120,5.5,13.0,55,0.00,BKN,,0.00,255.0,WeatherDisplay:10.37,2013-05-06 06:56:00,
2013-05-06 09:01:00,66.0,48.9,30.08,ENE,68,8.0,13.0,54,0.00,BKN,,0.00,214.0,WeatherDisplay:10.37,2013-05-06 07:01:00,
2013-05-06 09:06:00,67.2,49.5,30.08,East,97,7.0,13.0,53,0.00,SCT,,0.00,487.0,WeatherDisplay:10.37,2013-05-06 07:06:00,
2013-05-06 09:11:00,67.9,49.6,30.09,East,91,6.6,15.0,52,0.00,FEW,,0.00,220.0,WeatherDisplay:10.37,2013-05-06 07:11:00,
2013-05-06 09:16:00,67.8,49.5,30.09,ESE,105,9.7,15.0,52,0.00,SCT,,0.00,174.0,WeatherDisplay:10.37,2013-05-06 07:16:00,
2013-05-06 09:21:00,67.3,49.6,30.09,ESE,115,6.2,13.0,53,0.00,BKN,,0.00,200.0,WeatherDisplay:10.37,2013-05-06 07:21:00,
2013-05-06 09:26:00,67.1,50.4,30.09,ESE,116,5.9,15.0,55,0.00,BKN,,0.00,214.0,WeatherDisplay:10.37,2013-05-06 07:26:00,
2013-05-06 09:31:00,66.9,49.7,30.09,ESE,106,5.4,11.0,54,0.00,BKN,,0.00,197.0,WeatherDisplay:10.37,2013-05-06 07:31:00,
2013-05-06 09:36:00,66.7,50.0,30.09,ENE,78,7.6,13.0,55,0.00,BKN,,0.00,211.0,WeatherDisplay:10.37,2013-05-06 07:36:00,
2013-05-06 09:41:00,66.5,49.8,30.09,SSE,154,0.7,9.2,55,0.00,BKN,,0.00,257.0,WeatherDisplay:10.37,2013-05-06 07:41:00,
2013-05-06 09:46:00,66.5,49.8,30.09,ESE,119,6.2,10.4,55,0.00,BKN,,0.00,278.0,WeatherDisplay:10.37,2013-05-06 07:46:00,
2013-05-06 09:51:00,66.7,50.5,30.09,NE,51,3.4,11.5,56,0.00,BKN,,0.00,297.0,WeatherDisplay:10.37,2013-05-06 07:51:00,
2013-05-06 09:56:00,66.9,50.7,30.09,ESE,119,3.6,6.9,56,0.00,SCT,,0.00,322.0,WeatherDisplay:10.37,2013-05-06 07:56:00,
2013-05-06 10:01:00,67.9,51.6,30.09,ESE,115,2.7,9.2,56,0.00,SCT,,0.00,802.0,WeatherDisplay:10.37,2013-05-06 08:01:00,
2013-05-06 10:06:00,69.0,51.2,30.08,East,88,5.1,12.0,53,0.00,CLR,,0.00,603.0,WeatherDisplay:10.37,2013-05-06 08:06:00,
2013-05-06 10:11:00,69.1,51.2,30.08,ENE,73,4.6,13.8,53,0.00,CLR,,0.00,348.0,WeatherDisplay:10.37,2013-05-06 08:11:00,
2013-05-06 10:16:00,68.7,50.9,30.09,East,86,8.7,16.1,53,0.00,SCT,,0.00,257.0,WeatherDisplay:10.37,2013-05-06 08:16:00,
2013-05-06 10:21:00,68.2,50.9,30.09,SE,130,8.5,12.0,54,0.00,BKN,,0.00,301.0,WeatherDisplay:10.37,2013-05-06 08:21:00,
2013-05-06 10:26:00,68.1,51.3,30.09,ESE,103,7.2,12.0,55,0.00,BKN,,0.00,225.0,WeatherDisplay:10.37,2013-05-06 08:26:00,
2013-05-06 10:31:00,68.0,51.7,30.10,ENE,60,1.6,7.0,56,0.00,BKN,,0.00,186.0,WeatherDisplay:10.37,2013-05-06 08:31:00,
2013-05-06 10:36:00,68.0,51.7,30.10,East,90,3.5,9.0,56,0.00,BKN,,0.00,190.0,WeatherDisplay:10.37,2013-05-06 08:36:00,
2013-05-06 10:41:00,67.9,52.1,30.10,ESE,117,2.4,5.0,57,0.00,BKN,,0.00,220.0,WeatherDisplay:10.37,2013-05-06 08:41:00,
2013-05-06 10:46:00,67.8,52.5,30.10,ESE,122,2.1,5.0,58,0.00,BKN,,0.00,181.0,WeatherDisplay:10.37,2013-05-06 08:46:00,
2013-05-06 10:51:00,67.8,52.5,30.10,SSE,155,3.4,9.2,58,0.00,BKN,,0.00,118.0,WeatherDisplay:10.37,2013-05-06 08:51:00,
2013-05-06 10:56:00,67.7,52.9,30.10,SE,140,3.6,6.9,59,0.00,BKN,,0.00,100.0,WeatherDisplay:10.37,2013-05-06 08:56:00,
2013-05-06 11:01:00,67.3,52.9,30.10,ESE,111,3.0,6.9,60,0.00,BKN,,0.00,127.0,WeatherDisplay:10.37,2013-05-06 09:01:00,
2013-05-06 11:06:00,66.9,53.5,30.10,ENE,59,2.0,4.0,62,0.00,BKN,,0.00,195.0,WeatherDisplay:10.37,2013-05-06 09:06:00,
2013-05-06 11:11:00,66.7,53.7,30.10,East,89,3.0,6.0,63,0.00,BKN,,0.00,381.0,WeatherDisplay:10.37,2013-05-06 09:11:00,
2013-05-06 11:16:00,67.4,54.4,30.09,ENE,73,1.9,7.0,63,0.00,SCT,,0.00,745.0,WeatherDisplay:10.37,2013-05-06 09:16:00,
2013-05-06 11:21:00,68.6,54.6,30.09,ENE,68,3.6,11.0,61,0.00,FEW,,0.00,494.0,WeatherDisplay:10.37,2013-05-06 09:21:00,
2013-05-06 11:26:00,69.1,53.7,30.09,SE,135,4.9,8.1,58,0.00,SCT,,0.00,366.0,WeatherDisplay:10.37,2013-05-06 09:26:00,
2013-05-06 11:31:00,69.2,54.3,30.09,SE,138,6.6,11.0,59,0.00,SCT,,0.00,332.0,WeatherDisplay:10.37,2013-05-06 09:31:00,
2013-05-06 11:36:00,69.1,53.7,30.09,ENE,70,4.9,11.5,58,0.00,BKN,,0.00,345.0,WeatherDisplay:10.37,2013-05-06 09:36:00,
2013-05-06 11:41:00,69.3,54.4,30.09,ESE,118,2.9,5.8,59,0.00,BKN,,0.00,394.0,WeatherDisplay:10.37,2013-05-06 09:41:00,
2013-05-06 11:46:00,70.1,55.1,30.09,East,88,1.5,9.2,59,0.00,SCT,,0.00,459.0,WeatherDisplay:10.37,2013-05-06 09:46:00,
2013-05-06 11:51:00,71.0,55.0,30.09,East,80,4.5,9.0,57,0.00,SCT,,0.00,837.0,WeatherDisplay:10.37,2013-05-06 09:51:00,
2013-05-06 11:56:00,71.7,55.2,30.09,ESE,105,4.5,8.1,56,0.00,FEW,,0.00,649.0,WeatherDisplay:10.37,2013-05-06 09:56:00,
2013-05-06 12:01:00,72.4,55.3,30.09,SE,146,3.4,7.0,55,0.00,CLR,,0.00,643.0,WeatherDisplay:10.37,2013-05-06 10:01:00,
2013-05-06 12:06:00,72.6,55.5,30.09,East,88,4.0,6.0,55,0.00,FEW,,0.00,415.0,WeatherDisplay:10.37,2013-05-06 10:06:00,
2013-05-06 12:11:00,72.3,55.7,30.09,ENE,75,3.0,8.1,56,0.00,SCT,,0.00,352.0,WeatherDisplay:10.37,2013-05-06 10:11:00,
2013-05-06 12:16:00,72.1,55.5,30.09,ENE,72,4.0,9.0,56,0.00,BKN,,0.00,294.0,WeatherDisplay:10.37,2013-05-06 10:16:00,
2013-05-06 12:21:00,72.0,55.4,30.09,East,94,6.7,10.4,56,0.00,BKN,,0.00,513.0,WeatherDisplay:10.37,2013-05-06 10:21:00,
2013-05-06 12:26:00,72.3,55.7,30.09,SE,139,3.9,6.0,56,0.00,SCT,,0.00,441.0,WeatherDisplay:10.37,2013-05-06 10:26:00,
2013-05-06 12:31:00,72.7,56.6,30.08,ESE,115,1.5,5.0,57,0.00,SCT,,0.00,566.0,WeatherDisplay:10.37,2013-05-06 10:31:00,
2013-05-06 12:36:00,73.5,55.8,30.08,ESE,122,3.4,8.1,54,0.00,SCT,,0.00,918.0,WeatherDisplay:10.37,2013-05-06 10:36:00,
2013-05-06 12:41:00,74.6,56.9,30.08,SE,126,7.1,10.4,54,0.00,CLR,,0.00,844.0,WeatherDisplay:10.37,2013-05-06 10:41:00,
2013-05-06 12:46:00,75.0,56.7,30.08,NE,55,5.3,9.2,53,0.00,CLR,,0.00,710.0,WeatherDisplay:10.37,2013-05-06 10:46:00,
2013-05-06 12:51:00,75.4,56.0,30.08,ENE,75,6.4,11.0,51,0.00,CLR,,0.00,849.0,WeatherDisplay:10.37,2013-05-06 10:51:00,
2013-05-06 12:56:00,74.8,55.5,30.08,East,88,5.1,11.0,51,0.00,FEW,,0.00,355.0,WeatherDisplay:10.37,2013-05-06 10:56:00,
2013-05-06 13:01:00,74.4,55.1,30.08,NE,50,4.7,7.0,51,0.00,SCT,,0.00,369.0,WeatherDisplay:10.37,2013-05-06 11:01:00,
2013-05-06 13:06:00,74.5,56.2,30.08,ESE,110,6.2,9.0,53,0.00,SCT,,0.00,554.0,WeatherDisplay:10.37,2013-05-06 11:06:00,
2013-05-06 13:11:00,74.8,56.0,30.07,ESE,109,6.3,9.2,52,0.00,SCT,,0.00,617.0,WeatherDisplay:10.37,2013-05-06 11:11:00,
2013-05-06 13:16:00,75.1,56.8,30.07,ESE,115,4.4,10.4,53,0.00,CLR,,0.00,805.0,WeatherDisplay:10.37,2013-05-06 11:16:00,
2013-05-06 13:21:00,75.1,57.3,30.07,SE,132,2.6,5.8,54,0.00,FEW,,0.00,383.0,WeatherDisplay:10.37,2013-05-06 11:21:00,
2013-05-06 13:26:00,74.9,56.1,30.07,ESE,115,4.6,9.0,52,0.00,SCT,,0.00,480.0,WeatherDisplay:10.37,2013-05-06 11:26:00,
2013-05-06 13:31:00,74.6,55.8,30.07,ESE,109,5.5,10.4,52,0.00,SCT,,0.00,459.0,WeatherDisplay:10.37,2013-05-06 11:31:00,
2013-05-06 13:36:00,74.3,55.5,30.07,SE,140,6.2,9.0,52,0.00,SCT,,0.00,287.0,WeatherDisplay:10.37,2013-05-06 11:36:00,
2013-05-06 13:41:00,74.0,55.8,30.07,ENE,61,8.1,10.4,53,0.00,BKN,,0.00,320.0,WeatherDisplay:10.37,2013-05-06 11:41:00,
2013-05-06 13:46:00,73.6,55.9,30.06,SE,126,6.4,12.0,54,0.00,BKN,,0.00,362.0,WeatherDisplay:10.37,2013-05-06 11:46:00,
2013-05-06 13:51:00,73.2,56.1,30.06,East,82,6.9,12.0,55,0.00,BKN,,0.00,229.0,WeatherDisplay:10.37,2013-05-06 11:51:00,
2013-05-06 13:56:00,73.0,56.4,30.07,East,101,4.6,8.1,56,0.00,BKN,,0.00,144.0,WeatherDisplay:10.37,2013-05-06 11:56:00,
2013-05-06 14:01:00,72.8,56.7,30.06,East,86,3.6,8.1,57,0.00,BKN,,0.00,181.0,WeatherDisplay:10.37,2013-05-06 12:01:00,
2013-05-06 14:06:00,72.5,56.4,30.06,ENE,67,5.3,10.4,57,0.00,BKN,,0.00,200.0,WeatherDisplay:10.37,2013-05-06 12:06:00,
2013-05-06 14:11:00,72.5,56.9,30.05,ESE,108,2.4,6.9,58,0.00,BKN,,0.00,171.0,WeatherDisplay:10.37,2013-05-06 12:11:00,
2013-05-06 14:16:00,72.5,56.9,30.05,East,96,5.2,9.2,58,0.00,BKN,,0.00,137.0,WeatherDisplay:10.37,2013-05-06 12:16:00,
2013-05-06 14:21:00,72.4,57.3,30.05,East,90,3.6,7.0,59,0.00,BKN,,0.00,107.0,WeatherDisplay:10.37,2013-05-06 12:21:00,
2013-05-06 14:26:00,72.3,56.7,30.05,ESE,106,5.2,9.2,58,0.00,BKN,,0.00,74.0,WeatherDisplay:10.37,2013-05-06 12:26:00,
2013-05-06 14:31:00,72.2,57.1,30.04,ESE,115,1.4,3.5,59,0.00,BKN,,0.00,53.0,WeatherDisplay:10.37,2013-05-06 12:31:00,
2013-05-06 14:36:00,72.1,57.4,30.05,East,96,0.8,3.5,60,0.00,BKN,,0.00,37.0,WeatherDisplay:10.37,2013-05-06 12:36:00,
2013-05-06 14:41:00,72.0,57.4,30.05,ESE,107,1.0,2.3,60,0.00,OVC,,0.00,16.0,WeatherDisplay:10.37,2013-05-06 12:41:00,
2013-05-06 14:46:00,71.9,57.7,30.04,ENE,60,1.4,3.5,61,0.00,OVC,,0.00,12.0,WeatherDisplay:10.37,2013-05-06 12:46:00,
2013-05-06 14:51:00,71.8,57.6,30.04,ENE,67,0.0,1.2,61,0.00,OVC,,0.00,9.0,WeatherDisplay:10.37,2013-05-06 12:51:00,
2013-05-06 14:56:00,71.6,57.9,30.05,East,82,0.0,0.0,62,0.00,OVC,,0.00,5.0,WeatherDisplay:10.37,2013-05-06 12:56:00,
2013-05-06 15:01:00,71.4,58.1,30.07,South,173,1.2,2.3,63,0.00,OVC,,0.00,0.0,WeatherDisplay:10.37,2013-05-06 13:01:00,
2013-05-06 15:06:00,71.2,58.8,30.08,SSW,197,1.6,3.5,65,0.00,OVC,,0.00,0.0,WeatherDisplay:10.37,2013-05-06 13:06:00,
2013-05-06 15:11:00,70.9,59.0,30.08,SW,233,4.4,9.2,66,0.00,OVC,,0.00,0.0,WeatherDisplay:10.37,2013-05-06 13:11:00,
2013-05-06 15:16:00,70.4,58.5,30.08,SSW,195,4.8,11.5,66,0.02,RA,,0.02,5.0,WeatherDisplay:10.37,2013-05-06 13:16:00,
2013-05-06 15:21:00,69.3,58.3,30.08,SSE,160,3.3,8.1,68,0.04,RA,,0.04,11.0,WeatherDisplay:10.37,2013-05-06 13:21:00,
2013-05-06 15:26:00,68.0,57.8,30.07,SE,124,0.8,4.6,70,0.05,RA,,0.05,16.0,WeatherDisplay:10.37,2013-05-06 13:26:00,
2013-05-06 15:31:00,66.7,57.8,30.06,SE,138,2.3,6.9,73,0.05,RA,,0.05,25.0,WeatherDisplay:10.37,2013-05-06 13:31:00,
2013-05-06 15:36:00,65.8,58.4,30.06,East,98,3.4,7.0,77,0.05,OVC,,0.05,30.0,WeatherDisplay:10.37,2013-05-06 13:36:00,
2013-05-06 15:41:00,65.0,58.3,30.06,ESE,117,3.0,6.9,79,0.05,OVC,,0.05,44.0,WeatherDisplay:10.37,2013-05-06 13:41:00,
2013-05-06 15:46:00,64.4,58.1,30.05,East,85,5.1,10.4,80,0.05,BKN,,0.05,58.0,WeatherDisplay:10.37,2013-05-06 13:46:00,
2013-05-06 15:51:00,64.0,58.4,30.05,ENE,59,0.4,2.3,82,0.05,BKN,,0.05,88.0,WeatherDisplay:10.37,2013-05-06 13:51:00,
2013-05-06 15:56:00,63.8,58.2,30.05,ENE,59,0.0,0.0,82,0.05,BKN,,0.05,109.0,WeatherDisplay:10.37,2013-05-06 13:56:00,
2013-05-06 16:01:00,63.7,58.8,30.05,ESE,105,2.3,6.0,84,0.05,BKN,,0.05,139.0,WeatherDisplay:10.37,2013-05-06 14:01:00,
2013-05-06 16:06:00,63.7,59.1,30.05,East,93,0.7,3.5,85,0.05,BKN,,0.05,149.0,WeatherDisplay:10.37,2013-05-06 14:06:00,
2013-05-06 16:11:00,63.8,59.5,30.05,ENE,58,1.3,5.0,86,0.05,BKN,,0.05,118.0,WeatherDisplay:10.37,2013-05-06 14:11:00,
2013-05-06 16:16:00,63.9,59.6,30.05,East,82,2.3,7.0,86,0.02,BKN,,0.05,149.0,WeatherDisplay:10.37,2013-05-06 14:16:00,
2013-05-06 16:21:00,64.1,60.2,30.05,East,100,0.8,5.0,87,0.01,BKN,,0.05,174.0,WeatherDisplay:10.37,2013-05-06 14:21:00,
2013-05-06 16:26:00,64.3,60.3,30.05,South,182,1.4,4.0,87,0.00,BKN,,0.05,171.0,WeatherDisplay:10.37,2013-05-06 14:26:00,
2013-05-06 16:31:00,64.5,60.9,30.04,ESE,116,3.9,8.1,88,0.00,BKN,,0.05,167.0,WeatherDisplay:10.37,2013-05-06 14:31:00,
2013-05-06 16:36:00,64.6,60.6,30.04,ESE,108,4.7,8.1,87,0.00,BKN,,0.05,167.0,WeatherDisplay:10.37,2013-05-06 14:36:00,
2013-05-06 16:41:00,64.6,60.6,30.04,ENE,68,7.4,11.5,87,0.00,BKN,,0.05,146.0,WeatherDisplay:10.37,2013-05-06 14:41:00,
2013-05-06 16:46:00,64.6,60.3,30.04,East,94,5.5,13.8,86,0.00,BKN,,0.05,121.0,WeatherDisplay:10.37,2013-05-06 14:46:00,
2013-05-06 16:51:00,64.7,60.4,30.04,ENE,70,7.9,13.0,86,0.00,BKN,,0.05,113.0,WeatherDisplay:10.37,2013-05-06 14:51:00,
2013-05-06 16:56:00,64.7,60.4,30.04,East,94,6.5,12.7,86,0.00,BKN,,0.05,120.0,WeatherDisplay:10.37,2013-05-06 14:56:00,
2013-05-06 17:01:00,64.7,60.1,30.03,East,84,5.4,13.0,85,0.00,BKN,,0.05,114.0,WeatherDisplay:10.37,2013-05-06 15:01:00,
2013-05-06 17:06:00,64.6,60.0,30.03,East,84,5.0,11.5,85,0.00,BKN,,0.05,105.0,WeatherDisplay:10.37,2013-05-06 15:06:00,
2013-05-06 17:11:00,64.7,60.1,30.03,East,79,8.1,13.0,85,0.00,BKN,,0.05,132.0,WeatherDisplay:10.37,2013-05-06 15:11:00,
2013-05-06 17:16:00,64.8,60.2,30.02,ENE,74,4.3,10.0,85,0.00,BKN,,0.05,169.0,WeatherDisplay:10.37,2013-05-06 15:16:00,
2013-05-06 17:21:00,65.1,60.5,30.02,East,82,5.6,10.4,85,0.00,SCT,,0.05,366.0,WeatherDisplay:10.37,2013-05-06 15:21:00,
2013-05-06 17:26:00,65.7,61.1,30.02,East,80,5.1,11.5,85,0.00,CLR,,0.05,436.0,WeatherDisplay:10.37,2013-05-06 15:26:00,
2013-05-06 17:31:00,66.4,61.1,30.02,ENE,68,4.7,11.5,83,0.00,CLR,,0.05,308.0,WeatherDisplay:10.37,2013-05-06 15:31:00,
2013-05-06 17:36:00,66.8,61.1,30.02,NE,49,7.6,10.4,82,0.00,CLR,,0.05,279.0,WeatherDisplay:10.37,2013-05-06 15:36:00,
2013-05-06 17:41:00,67.0,60.6,30.02,ENE,61,7.1,10.4,80,0.00,CLR,,0.05,308.0,WeatherDisplay:10.37,2013-05-06 15:41:00,
2013-05-06 17:46:00,67.2,60.8,30.02,NE,52,3.2,6.9,80,0.00,CLR,,0.05,309.0,WeatherDisplay:10.37,2013-05-06 15:46:00,
2013-05-06 17:51:00,67.4,61.0,30.02,ENE,58,3.7,9.2,80,0.00,CLR,,0.05,301.0,WeatherDisplay:10.37,2013-05-06 15:51:00,
2013-05-06 17:56:00,67.6,60.9,30.02,ENE,64,4.5,10.4,79,0.00,CLR,,0.05,142.0,WeatherDisplay:10.37,2013-05-06 15:56:00,
2013-05-06 18:01:00,67.6,60.5,30.02,NE,51,7.1,11.5,78,0.00,FEW,,0.05,120.0,WeatherDisplay:10.37,2013-05-06 16:01:00,
2013-05-06 18:06:00,67.4,60.3,30.02,East,80,4.5,10.4,78,0.00,SCT,,0.05,253.0,WeatherDisplay:10.37,2013-05-06 16:06:00,
2013-05-06 18:11:00,67.4,60.7,30.02,ESE,105,4.4,11.5,79,0.00,CLR,,0.05,223.0,WeatherDisplay:10.37,2013-05-06 16:11:00,
2013-05-06 18:16:00,67.5,60.4,30.02,ESE,105,5.7,10.0,78,0.00,CLR,,0.05,132.0,WeatherDisplay:10.37,2013-05-06 16:16:00,
2013-05-06 18:21:00,67.5,60.4,30.02,NE,44,6.9,10.4,78,0.00,FEW,,0.05,72.0,WeatherDisplay:10.37,2013-05-06 16:21:00,
2013-05-06 18:26:00,67.5,60.8,30.02,ENE,75,1.8,8.0,79,0.00,SCT,,0.05,56.0,WeatherDisplay:10.37,2013-05-06 16:26:00,
2013-05-06 18:31:00,67.3,60.6,30.02,East,84,2.6,5.0,79,0.00,BKN,,0.05,63.0,WeatherDisplay:10.37,2013-05-06 16:31:00,
2013-05-06 18:36:00,67.1,60.7,30.01,East,88,1.4,5.8,80,0.00,BKN,,0.05,62.0,WeatherDisplay:10.37,2013-05-06 16:36:00,
2013-05-06 18:41:00,66.9,60.5,30.01,East,88,5.0,9.2,80,0.00,BKN,,0.05,39.0,WeatherDisplay:10.37,2013-05-06 16:41:00,
2013-05-06 18:46:00,66.7,60.3,30.01,ENE,60,3.3,6.0,80,0.00,BKN,,0.05,37.0,WeatherDisplay:10.37,2013-05-06 16:46:00,
2013-05-06 18:51:00,66.5,60.5,30.02,East,93,3.4,8.1,81,0.00,BKN,,0.05,39.0,WeatherDisplay:10.37,2013-05-06 16:51:00,
2013-05-06 18:56:00,66.4,60.4,30.02,NE,44,2.5,6.9,81,0.00,BKN,,0.05,46.0,WeatherDisplay:10.37,2013-05-06 16:56:00,
2013-05-06 19:01:00,66.2,60.2,30.02,ENE,69,1.0,5.8,81,0.00,SCT,,0.05,49.0,WeatherDisplay:10.37,2013-05-06 17:01:00,
2013-05-06 19:06:00,66.1,60.4,30.02,ESE,108,0.4,3.5,82,0.00,SCT,,0.05,51.0,WeatherDisplay:10.37,2013-05-06 17:06:00,
2013-05-06 19:11:00,66.0,60.3,30.02,East,97,2.0,5.0,82,0.00,SCT,,0.05,53.0,WeatherDisplay:10.37,2013-05-06 17:11:00,
2013-05-06 19:16:00,66.0,60.7,30.02,ESE,112,3.7,8.1,83,0.00,SCT,,0.05,49.0,WeatherDisplay:10.37,2013-05-06 17:16:00,
2013-05-06 19:21:00,66.0,60.7,30.02,East,80,2.4,5.8,83,0.00,SCT,,0.05,33.0,WeatherDisplay:10.37,2013-05-06 17:21:00,
2013-05-06 19:26:00,65.9,60.6,30.02,ESE,111,0.7,6.9,83,0.00,SCT,,0.05,21.0,WeatherDisplay:10.37,2013-05-06 17:26:00,
2013-05-06 19:31:00,66.0,60.7,30.02,ENE,78,4.1,8.1,83,0.00,SCT,,0.05,19.0,WeatherDisplay:10.37,2013-05-06 17:31:00,
2013-05-06 19:36:00,66.0,60.7,30.02,East,95,1.5,6.9,83,0.00,SCT,,0.05,9.0,WeatherDisplay:10.37,2013-05-06 17:36:00,
2013-05-06 19:41:00,66.0,60.7,30.02,SSE,149,0.0,3.5,83,0.00,SCT,,0.05,5.0,WeatherDisplay:10.37,2013-05-06 17:41:00,
2013-05-06 19:46:00,66.0,60.3,30.02,SE,144,0.2,2.3,82,0.00,SCT,,0.05,5.0,WeatherDisplay:10.37,2013-05-06 17:46:00,
2013-05-06 19:51:00,65.9,60.2,30.02,East,98,1.3,4.0,82,0.00,SCT,,0.05,0.0,WeatherDisplay:10.37,2013-05-06 17:51:00,
2013-05-06 19:56:00,65.9,60.2,30.02,ENE,65,0.4,1.2,82,0.00,SCT,,0.05,0.0,WeatherDisplay:10.37,2013-05-06 17:56:00,
2013-05-06 20:01:00,65.9,60.2,30.02,ENE,65,0.0,0.0,82,0.00,SCT,,0.05,0.0,WeatherDisplay:10.37,2013-05-06 18:01:00,
2013-05-06 20:06:00,65.9,60.2,30.02,NE,47,0.5,2.3,82,0.00,SCT,,0.05,0.0,WeatherDisplay:10.37,2013-05-06 18:06:00,
2013-05-06 20:11:00,65.9,60.6,30.03,NE,48,0.0,0.0,83,0.00,SCT,,0.05,0.0,WeatherDisplay:10.37,2013-05-06 18:11:00,
2013-05-06 20:16:00,65.8,60.5,30.02,NE,47,1.1,2.3,83,0.00,SCT,,0.05,0.0,WeatherDisplay:10.37,2013-05-06 18:16:00,
2013-05-06 20:21:00,65.7,60.4,30.02,NW,313,0.2,2.3,83,0.00,SCT,,0.05,0.0,WeatherDisplay:10.37,2013-05-06 18:21:00,
2013-05-06 20:26:00,65.5,60.5,30.02,NW,325,0.8,3.5,84,0.00,SCT,,0.05,0.0,WeatherDisplay:10.37,2013-05-06 18:26:00,
2013-05-06 20:31:00,65.3,60.3,30.03,NW,324,0.3,2.3,84,0.00,SCT,,0.05,0.0,WeatherDisplay:10.37,2013-05-06 18:31:00,
2013-05-06 20:36:00,65.1,60.5,30.03,NW,324,1.3,3.5,85,0.00,SCT,,0.05,0.0,WeatherDisplay:10.37,2013-05-06 18:36:00,
2013-05-06 20:41:00,65.0,60.4,30.03,NW,324,0.4,2.3,85,0.00,SCT,,0.05,0.0,WeatherDisplay:10.37,2013-05-06 18:41:00,
2013-05-06 20:46:00,64.9,60.6,30.03,ENE,67,0.5,3.5,86,0.01,RA,,0.06,0.0,WeatherDisplay:10.37,2013-05-06 18:46:00,
2013-05-06 20:51:00,64.8,60.5,30.03,ENE,67,0.0,1.2,86,0.02,RA,,0.06,0.0,WeatherDisplay:10.37,2013-05-06 18:51:00,
2013-05-06 20:56:00,64.6,60.3,30.03,ENE,67,0.5,2.3,86,0.02,RA,,0.06,0.0,WeatherDisplay:10.37,2013-05-06 18:56:00,
2013-05-06 21:01:00,64.5,60.5,30.03,West,262,1.9,4.0,87,0.02,SCT,,0.06,0.0,WeatherDisplay:10.37,2013-05-06 19:01:00,
2013-05-06 21:06:00,64.2,60.2,30.03,West,271,2.0,4.0,87,0.02,SCT,,0.06,0.0,WeatherDisplay:10.37,2013-05-06 19:06:00,
2013-05-06 21:11:00,64.1,60.5,30.03,West,275,1.3,3.5,88,0.02,SCT,,0.06,0.0,WeatherDisplay:10.37,2013-05-06 19:11:00,
2013-05-06 21:16:00,63.9,60.3,30.04,West,275,0.0,0.0,88,0.02,SCT,,0.06,0.0,WeatherDisplay:10.37,2013-05-06 19:16:00,
2013-05-06 21:21:00,63.7,60.1,30.03,West,275,0.0,0.0,88,0.02,SCT,,0.06,0.0,WeatherDisplay:10.37,2013-05-06 19:21:00,
2013-05-06 21:26:00,63.6,60.3,30.03,West,275,0.0,1.2,89,0.02,SCT,,0.06,0.0,WeatherDisplay:10.37,2013-05-06 19:26:00,
2013-05-06 21:31:00,63.5,60.2,30.03,West,275,0.5,1.2,89,0.02,SCT,,0.06,0.0,WeatherDisplay:10.37,2013-05-06 19:31:00,
2013-05-06 21:36:00,63.5,60.2,30.03,West,275,0.0,0.0,89,0.02,SCT,,0.06,0.0,WeatherDisplay:10.37,2013-05-06 19:36:00,
2013-05-06 21:41:00,63.3,60.3,30.02,West,275,0.0,0.0,90,0.02,SCT,,0.06,0.0,WeatherDisplay:10.37,2013-05-06 19:41:00,
2013-05-06 21:46:00,63.3,60.3,30.02,West,275,0.0,0.0,90,0.01,SCT,,0.06,0.0,WeatherDisplay:10.37,2013-05-06 19:46:00,
2013-05-06 21:51:00,63.3,60.3,30.02,West,275,0.0,0.0,90,0.00,SCT,,0.06,0.0,WeatherDisplay:10.37,2013-05-06 19:51:00,
2013-05-06 21:56:00,63.2,60.2,30.02,SSE,151,1.2,3.5,90,0.00,SCT,,0.06,0.0,WeatherDisplay:10.37,2013-05-06 19:56:00,
2013-05-06 22:01:00,63.1,60.1,30.02,SSE,151,0.0,1.2,90,0.01,RA,,0.07,0.0,WeatherDisplay:10.37,2013-05-06 20:01:00,
2013-05-06 22:06:00,63.0,60.3,30.03,South,173,1.9,4.0,91,0.01,RA,,0.07,0.0,WeatherDisplay:10.37,2013-05-06 20:06:00,
2013-05-06 22:12:00,62.9,60.2,30.03,ESE,121,7.2,13.0,91,0.01,SCT,,0.07,0.0,WeatherDisplay:10.37,2013-05-06 20:12:00,
2013-05-06 22:17:00,62.8,60.1,30.02,East,82,2.6,8.1,91,0.04,RA,,0.10,0.0,WeatherDisplay:10.37,2013-05-06 20:17:00,
2013-05-06 22:22:00,62.7,60.0,30.02,SSE,157,3.8,10.4,91,0.05,RA,,0.11,0.0,WeatherDisplay:10.37,2013-05-06 20:22:00,
2013-05-06 22:27:00,62.7,59.7,30.03,ESE,111,4.6,10.4,90,0.05,RA,,0.11,0.0,WeatherDisplay:10.37,2013-05-06 20:27:00,
2013-05-06 22:32:00,62.7,59.7,30.02,ESE,103,7.9,12.0,90,0.05,SCT,,0.11,0.0,WeatherDisplay:10.37,2013-05-06 20:32:00,
2013-05-06 22:37:00,62.8,59.8,30.02,ESE,104,5.1,11.5,90,0.05,SCT,,0.11,0.0,WeatherDisplay:10.37,2013-05-06 20:37:00,
2013-05-06 22:42:00,62.9,59.6,30.02,ESE,117,5.3,10.4,89,0.05,SCT,,0.11,0.0,WeatherDisplay:10.37,2013-05-06 20:42:00,
2013-05-06 22:47:00,63.0,59.4,30.02,ESE,108,5.8,9.2,88,0.05,SCT,,0.11,0.0,WeatherDisplay:10.37,2013-05-06 20:47:00,
2013-05-06 22:52:00,63.1,59.2,30.02,East,89,4.0,9.2,87,0.05,SCT,,0.11,0.0,WeatherDisplay:10.37,2013-05-06 20:52:00,
2013-05-06 22:57:00,63.2,58.9,30.02,SE,128,4.1,10.4,86,0.05,SCT,,0.11,0.0,WeatherDisplay:10.37,2013-05-06 20:57:00,
2013-05-06 23:02:00,63.4,59.1,30.02,SSE,151,3.3,6.9,86,0.04,SCT,,0.11,0.0,WeatherDisplay:10.37,2013-05-06 21:02:00,
2013-05-06 23:07:00,63.7,59.1,30.02,SE,127,5.2,12.0,85,0.04,SCT,,0.11,0.0,WeatherDisplay:10.37,2013-05-06 21:07:00,
2013-05-06 23:12:00,64.0,59.1,30.02,SE,128,4.1,9.2,84,0.04,SCT,,0.11,0.0,WeatherDisplay:10.37,2013-05-06 21:12:00,
2013-05-06 23:17:00,64.2,58.9,30.03,SSE,150,2.4,5.0,83,0.01,SCT,,0.11,0.0,WeatherDisplay:10.37,2013-05-06 21:17:00,
2013-05-06 23:22:00,64.4,58.8,30.02,ESE,105,6.3,16.1,82,0.00,SCT,,0.11,0.0,WeatherDisplay:10.37,2013-05-06 21:22:00,
2013-05-06 23:27:00,64.5,58.5,30.03,East,88,6.1,14.0,81,0.00,SCT,,0.11,0.0,WeatherDisplay:10.37,2013-05-06 21:27:00,
2013-05-06 23:32:00,64.5,58.5,30.03,South,172,4.5,11.5,81,0.00,SCT,,0.11,0.0,WeatherDisplay:10.37,2013-05-06 21:32:00,
2013-05-06 23:37:00,64.4,58.8,30.03,ESE,109,4.6,7.0,82,0.00,SCT,,0.11,0.0,WeatherDisplay:10.37,2013-05-06 21:37:00,
2013-05-06 23:42:00,64.2,58.6,30.03,ENE,65,3.3,8.1,82,0.00,SCT,,0.11,0.0,WeatherDisplay:10.37,2013-05-06 21:42:00,
2013-05-06 23:47:00,64.1,58.8,30.04,SSE,153,4.1,8.1,83,0.00,SCT,,0.11,0.0,WeatherDisplay:10.37,2013-05-06 21:47:00,
2013-05-06 23:52:00,64.0,58.7,30.05,SE,129,6.3,10.4,83,0.00,SCT,,0.11,0.0,WeatherDisplay:10.37,2013-05-06 21:52:00,
2013-05-06 23:57:00,63.9,59.0,30.05,SSE,150,4.4,7.0,84,0.00,SCT,,0.11,0.0,WeatherDisplay:10.37,2013-05-06 21:57:00,